Nearby METAR Reports

 

KLOT - Romeoville/Chi, Illinois, USA
Distance from station: N 3mi, 5km
Updated: Wed, 20-Oct-2021 5:35pm CDT
Nearby thunderstorm, Clear
Nearby thunderstorm, Clear
 Wind from SW
Wind: SW 6 mph , 9 km/h
Temperature: 70°F , 21°C
Dew Point: 54°F , 12°C
Humidity: 57%
Barometer: 29.91 inHg , 1012.9 hPa
Summary: Nearby Thunderstorm
Clouds: Clear
Visibility: 10 miles , 16 km
2021/10/20 22:35 KLOT 202235Z AUTO 22005KT 10SM VCTS CLR 21/12 A2991 RMK AO2 LTG DSNT SE AND S T02090117
KJOT - Joliet, Illinois, USA
Distance from station: WSW 5mi, 7km
Updated: Wed, 20-Oct-2021 5:35pm CDT
Clear
Clear
 Wind from SW
Wind: SW 5 mph , 7 km/h
Temperature: 72°F , 22°C
Dew Point: 54°F , 12°C
Humidity: 53%
Barometer: 29.91 inHg , 1012.9 hPa
Clouds: Clear
Visibility: 10 miles , 16 km
2021/10/20 22:35 KJOT 202235Z AUTO 22004KT 10SM CLR 22/12 A2991 RMK AO2 T02220116
 
KC09 - Morris-Washburn, Illinois, USA
Distance from station: WSW 18mi, 29km
Updated: Wed, 20-Oct-2021 5:35pm CDT
Nearby thunderstorm, Clear
Nearby thunderstorm, Clear
 Wind from SSW
Wind: SSW 10 mph , 17 km/h
Temperature: 72°F , 22°C
Dew Point: 52°F , 11°C
Humidity: 50%
Barometer: 29.90 inHg , 1012.5 hPa
Summary: Nearby Thunderstorm
Clouds: Clear
Visibility: 10 miles , 16 km
2021/10/20 22:35 KC09 202235Z AUTO 21009KT 10SM VCTS CLR 22/11 A2990 RMK AO2 LTG DSNT E THRU S T02200109
KARR - Chicago/Aurora, Illinois, USA
Distance from station: NW 24mi, 39km
Updated: Wed, 20-Oct-2021 4:52pm CDT
Clear
Clear
 Wind from SSW
Wind: SSW 10 mph , 17 km/h
Temperature: 73°F , 23°C
Dew Point: 52°F , 11°C
Humidity: 47%
Barometer: 29.91 inHg , 1012.9 hPa
Clouds: Clear
Visibility: 10 miles , 16 km
2021/10/20 21:52 KARR 202152Z 20009KT 10SM CLR 23/11 A2991 RMK AO2 SLP125 T02280106
 
KMDW - Chicago, Illinois, USA
Distance from station: NE 25mi, 39km
Updated: Wed, 20-Oct-2021 4:53pm CDT
Mostly cloudy
Mostly cloudy
 Wind from SSW
Wind: SSW 7 mph , 11 km/h
Temperature: 72°F , 22°C
Dew Point: 46°F , 8°C
Humidity: 41%
Barometer: 29.90 inHg , 1012.5 hPa
Clouds: Mostly cloudy
Visibility: 10 miles , 16 km
Cloud details: Few Clouds 4000 ft
Mostly cloudy 6500 ft
Mostly cloudy 14000 ft
Mostly cloudy 25000 ft
2021/10/20 21:53 KMDW 202153Z 20006KT 10SM FEW040 BKN065 BKN140 BKN250 22/08 A2990 RMK AO2 LTG DSNT S SLP121 OCNL LTGICCG DSNT S CB DSNT E-S T02220083
KDPA - Chicago/Dupage, Illinois, USA
Distance from station: NNW 26mi, 42km
Updated: Wed, 20-Oct-2021 4:52pm CDT
Clear
Clear
 Wind from SSW
Wind: SSW 9 mph , 15 km/h
Temperature: 72°F , 22°C
Dew Point: 52°F , 11°C
Humidity: 50%
Barometer: 29.90 inHg , 1012.5 hPa
Clouds: Clear
Visibility: 10 miles , 16 km
2021/10/20 21:52 KDPA 202152Z 20008KT 10SM CLR 22/11 A2990 RMK AO2 SLP124 T02170106
 
KIGQ - Chicago/Lansing, Illinois, USA
Distance from station: E 30mi, 48km
Updated: Wed, 20-Oct-2021 5:35pm CDT
Nearby thunderstorm, Mostly cloudy
Nearby thunderstorm, Mostly cloudy
 Wind from W
Wind: W 7 mph , 11 km/h, Gust: 16 mph , 26 km/h
Temperature: 68°F , 20°C
Dew Point: 52°F , 11°C
Humidity: 56%
Barometer: 29.90 inHg , 1012.5 hPa
Summary: Nearby Thunderstorm
Clouds: Mostly cloudy
Visibility: 10 miles , 16 km
Cloud details: Partly cloudy 10000 ft
Mostly cloudy 12000 ft
2021/10/20 22:35 KIGQ 202235Z AUTO 26006G14KT 10SM VCTS SCT100 BKN120 20/11 A2990 RMK AO2 LTG DSNT SE THRU SW T01980110
KORD - Chicago O'hare, Illinois, USA
Distance from station: NNE 31mi, 50km
Updated: Wed, 20-Oct-2021 4:51pm CDT
Mostly cloudy
Mostly cloudy
 Wind from S
Wind: S 8 mph , 13 km/h
Temperature: 72°F , 22°C
Dew Point: 50°F , 10°C
Humidity: 47%
Barometer: 29.89 inHg , 1012.2 hPa
Clouds: Mostly cloudy
Visibility: 10 miles , 16 km
Cloud details: Few Clouds 8000 ft
Partly cloudy 12000 ft
Partly cloudy 15000 ft
Mostly cloudy 25000 ft
2021/10/20 21:51 KORD 202151Z 18007KT 10SM FEW080 SCT120 SCT150 BKN250 22/10 A2989 RMK AO2 SLP121 VCSH VIRGA T02220100
 
KGYY - Gary Regional, Indiana, USA
Distance from station: E 36mi, 58km
Updated: Wed, 20-Oct-2021 5:45pm CDT

 Wind from WSW
Wind: WSW 7 mph , 11 km/h
Visibility: 10 miles , 16 km
2021/10/20 22:45 KGYY 202245Z 24006KT 10SM +VCTSRA BKN120 21/11 A2990 RMK LTG DSNT SW
KIKK - Kankakee, Illinois, USA
Distance from station: SSE 36mi, 58km
Updated: Wed, 20-Oct-2021 3:14pm CDT
NOT Current
Partly cloudy
Partly cloudy
 Wind from S
Wind: S 14 mph , 22 km/h, Gust: 20 mph , 31 km/h
Temperature: 73°F , 23°C
Dew Point: 52°F , 11°C
Humidity: 47%
Barometer: 29.96 inHg , 1014.6 hPa
Clouds: Partly cloudy
Visibility: 10 miles , 16 km
Cloud details: Partly cloudy 12000 ft
2021/10/20 20:14 KIKK 202014Z AUTO 19012G17KT 10SM SCT120 23/11 A2996 RMK AO2
 
KDKB - De Kalb, Illinois, USA
Distance from station: NW 40mi, 65km
Updated: Wed, 20-Oct-2021 5:35pm CDT
Partly cloudy
Partly cloudy
 Wind from SSW
Wind: SSW 9 mph , 15 km/h
Temperature: 68°F , 20°C
Dew Point: 54°F , 12°C
Humidity: 60%
Barometer: 29.90 inHg , 1012.5 hPa
Clouds: Partly cloudy
Visibility: 10 miles , 16 km
Cloud details: Partly cloudy 11000 ft
2021/10/20 22:35 KDKB 202235Z AUTO 21008KT 10SM SCT110 20/12 A2990 RMK AO2 LTG DSNT SE T02030120
KPWK - Palwaukee, Illinois, USA
Distance from station: NNE 41mi, 65km
Updated: Wed, 20-Oct-2021 4:52pm CDT
Clear
Clear
 Wind from SSW
Wind: SSW 9 mph , 15 km/h
Temperature: 72°F , 22°C
Dew Point: 52°F , 11°C
Humidity: 50%
Barometer: 29.91 inHg , 1012.9 hPa
Clouds: Clear
Visibility: 10 miles , 16 km
2021/10/20 21:52 KPWK 202152Z AUTO 20008KT 10SM CLR 22/11 A2991 RMK AO2 SLP127 T02220106